Time;durP1;ratioP1;P1;durP2;ratioP2;P2;SDS_P1;SDS_P2;PMS_P1;PMS_P2;Temp;Humidity;BMP_temperature;BMP_pressure;BME280_temperature;BME280_humidity;BME280_pressure;Samples;Min_cycle;Max_cycle;Signal;HPM_P1;HPM_P2
2023/06/13 00:00:35;;;;;;;2.50;2.30;;;18.30;55.20;;;;;;4941367;28;20207;-70
2023/06/13 00:03:00;;;;;;;3.60;2.50;;;18.20;55.30;;;;;;4945745;28;20205;-66
2023/06/13 00:05:26;;;;;;;4.60;2.90;;;18.30;55.20;;;;;;4950885;28;20207;-65
2023/06/13 00:07:52;;;;;;;3.90;2.80;;;18.10;55.40;;;;;;4951158;28;20294;-66
2023/06/13 00:10:17;;;;;;;5.00;2.60;;;18.10;55.60;;;;;;4951259;28;20308;-66
2023/06/13 00:12:49;;;;;;;3.50;2.63;;;18.20;55.80;;;;;;4951500;28;20203;-66
2023/06/13 00:15:15;;;;;;;5.50;2.70;;;18.20;55.80;;;;;;4941482;28;20679;-66
2023/06/13 00:17:41;;;;;;;2.33;2.20;;;18.20;55.50;;;;;;4951908;28;20211;-66
2023/06/13 00:20:08;;;;;;;4.90;2.50;;;18.20;56.40;;;;;;4951449;28;20566;-66
2023/06/13 00:22:34;;;;;;;3.50;2.80;;;18.20;55.80;;;;;;4951660;28;20222;-66
2023/06/13 00:25:00;;;;;;;4.93;2.47;;;18.20;55.60;;;;;;4951939;28;20219;-67
2023/06/13 00:27:25;;;;;;;3.33;2.47;;;18.20;55.90;;;;;;4949032;28;20204;-67
2023/06/13 00:29:51;;;;;;;5.13;2.67;;;18.10;55.90;;;;;;4951062;28;20205;-67
2023/06/13 00:32:17;;;;;;;3.03;2.63;;;18.10;56.30;;;;;;4950361;28;20694;-66
2023/06/13 00:34:43;;;;;;;3.97;2.90;;;18.10;55.90;;;;;;4950842;28;20231;-66
2023/06/13 00:37:09;;;;;;;3.90;2.90;;;18.10;56.00;;;;;;4951176;28;20219;-66
2023/06/13 00:39:37;;;;;;;2.60;2.40;;;18.10;56.10;;;;;;4931439;28;20214;-66
2023/06/13 00:42:03;;;;;;;3.57;2.97;;;18.00;56.10;;;;;;4950791;28;20209;-66
2023/06/13 00:44:29;;;;;;;3.47;3.10;;;18.00;56.20;;;;;;4950979;28;20214;-66
2023/06/13 00:46:56;;;;;;;3.17;2.30;;;17.90;56.20;;;;;;4951347;28;20250;-66
2023/06/13 00:49:21;;;;;;;2.90;2.60;;;17.90;56.90;;;;;;4951164;28;20194;-66
2023/06/13 00:51:48;;;;;;;4.10;2.70;;;17.90;56.80;;;;;;4950742;28;20206;-66
2023/06/13 00:54:14;;;;;;;4.73;3.03;;;17.90;56.70;;;;;;4946425;28;20210;-65
2023/06/13 00:56:40;;;;;;;7.30;3.03;;;17.90;56.70;;;;;;4950552;28;20552;-66
2023/06/13 00:59:07;;;;;;;5.50;3.17;;;17.90;57.00;;;;;;4950463;28;20205;-66
2023/06/13 01:01:34;;;;;;;5.77;3.47;;;17.80;56.90;;;;;;4932521;29;20245;-66
2023/06/13 01:03:59;;;;;;;4.63;3.37;;;17.80;57.20;;;;;;4924274;28;20686;-80
2023/06/13 01:06:28;;;;;;;6.37;3.77;;;17.80;57.00;;;;;;4951021;28;20205;-65
2023/06/13 01:08:58;;;;;;;4.93;2.83;;;17.70;57.00;;;;;;4950529;28;20210;-67
2023/06/13 01:11:45;;;;;;;5.70;2.80;;;17.50;57.00;;;;;;4951031;28;20208;-65
2023/06/13 01:14:30;;;;;;;6.50;3.03;;;17.50;57.20;;;;;;4947539;28;20250;-66
2023/06/13 01:17:18;;;;;;;6.47;3.23;;;17.50;57.30;;;;;;4948332;28;20230;-66
2023/06/13 01:19:53;;;;;;;3.50;2.97;;;17.40;57.20;;;;;;4945819;28;20293;-66
2023/06/13 01:22:22;;;;;;;3.47;3.17;;;17.40;57.40;;;;;;4950179;28;20554;-66
2023/06/13 01:25:28;;;;;;;3.57;2.53;;;17.40;57.40;;;;;;4948396;28;20224;-66
2023/06/13 01:27:57;;;;;;;3.43;3.13;;;17.20;57.70;;;;;;4946141;28;20676;-66
2023/06/13 01:30:25;;;;;;;3.93;2.97;;;17.30;57.70;;;;;;4949833;28;20200;-66
2023/06/13 01:32:52;;;;;;;3.97;2.60;;;17.30;57.70;;;;;;4932267;29;20196;-66
2023/06/13 01:35:18;;;;;;;2.87;2.67;;;17.20;57.90;;;;;;4948598;28;20270;-66
2023/06/13 01:37:43;;;;;;;4.70;3.20;;;17.20;57.90;;;;;;4950513;28;20210;-66
2023/06/13 01:40:09;;;;;;;4.17;2.50;;;17.20;58.20;;;;;;4950361;28;20212;-65
2023/06/13 01:42:35;;;;;;;3.90;2.47;;;17.10;57.90;;;;;;4950128;28;20430;-67
2023/06/13 01:45:02;;;;;;;5.57;2.53;;;17.00;58.30;;;;;;4950287;28;20194;-65
2023/06/13 01:47:50;;;;;;;5.67;3.07;;;16.80;58.60;;;;;;4947699;28;20772;-66
2023/06/13 01:50:45;;;;;;;5.40;3.20;;;16.80;58.70;;;;;;4949698;28;20200;-65
2023/06/13 01:53:28;;;;;;;4.73;3.20;;;16.80;59.00;;;;;;4943026;28;20707;-65
2023/06/13 01:56:02;;;;;;;6.27;3.33;;;16.80;59.00;;;;;;4947711;28;20906;-65
2023/06/13 01:58:34;;;;;;;3.03;2.60;;;16.80;59.30;;;;;;4947892;28;20668;-64
2023/06/13 02:01:04;;;;;;;3.57;2.90;;;16.70;59.50;;;;;;4942494;28;20231;-65
2023/06/13 02:03:30;;;;;;;8.03;3.20;;;16.70;59.50;;;;;;4950051;28;20235;-66
2023/06/13 02:05:56;;;;;;;6.00;3.37;;;16.70;59.80;;;;;;4949849;28;20618;-65
2023/06/13 02:08:22;;;;;;;5.43;3.00;;;16.60;59.90;;;;;;4947404;28;20211;-66
2023/06/13 02:10:47;;;;;;;4.20;3.03;;;16.40;60.80;;;;;;4948445;28;20282;-65
2023/06/13 02:13:12;;;;;;;5.33;3.03;;;16.40;60.80;;;;;;4932040;28;20833;-65
2023/06/13 02:15:38;;;;;;;3.60;2.50;;;16.30;60.90;;;;;;4949463;28;20603;-65
2023/06/13 02:18:04;;;;;;;2.70;2.43;;;16.30;61.10;;;;;;4949280;28;20205;-65
2023/06/13 02:20:29;;;;;;;5.67;2.90;;;16.20;61.60;;;;;;4946895;28;20211;-67
2023/06/13 02:22:56;;;;;;;3.33;3.03;;;16.20;61.90;;;;;;4949623;28;20218;-65
2023/06/13 02:25:22;;;;;;;5.73;2.97;;;16.10;62.60;;;;;;4949795;28;20201;-66
2023/06/13 02:27:47;;;;;;;3.43;2.70;;;16.10;62.40;;;;;;4948600;28;20634;-65
2023/06/13 02:30:13;;;;;;;4.20;2.77;;;16.20;62.50;;;;;;4932322;28;20207;-65
2023/06/13 02:32:39;;;;;;;5.33;2.70;;;16.30;62.70;;;;;;4928154;28;20741;-64
2023/06/13 02:35:07;;;;;;;4.77;2.60;;;16.20;62.60;;;;;;4959937;28;20214;-65
2023/06/13 02:37:33;;;;;;;5.83;2.97;;;16.30;62.70;;;;;;4958741;28;20292;-64
2023/06/13 02:39:58;;;;;;;4.57;3.03;;;16.20;62.90;;;;;;4958889;28;20209;-65
2023/06/13 02:42:27;;;;;;;3.93;3.10;;;16.20;63.10;;;;;;4958754;28;20215;-63
2023/06/13 02:44:52;;;;;;;5.60;3.63;;;16.10;63.50;;;;;;4956627;28;20209;-64
2023/06/13 02:47:20;;;;;;;4.53;2.90;;;16.00;63.70;;;;;;4958539;28;20205;-66
2023/06/13 02:49:45;;;;;;;2.67;2.47;;;16.10;63.60;;;;;;4958264;28;20784;-65
2023/06/13 02:52:11;;;;;;;4.10;2.87;;;16.00;63.70;;;;;;4958547;28;20276;-65
2023/06/13 02:54:36;;;;;;;4.07;3.30;;;16.00;64.10;;;;;;4958359;28;20615;-65
2023/06/13 02:57:02;;;;;;;4.43;2.97;;;15.90;64.50;;;;;;4956327;28;20202;-64
2023/06/13 02:59:28;;;;;;;3.50;3.20;;;15.90;64.70;;;;;;4958467;28;20197;-64
2023/06/13 03:01:53;;;;;;;3.60;2.80;;;15.80;64.80;;;;;;4958149;28;20412;-65
2023/06/13 03:04:18;;;;;;;5.57;3.30;;;15.70;65.30;;;;;;4958522;28;20627;-66
2023/06/13 03:06:46;;;;;;;4.90;3.23;;;15.80;65.50;;;;;;4956607;28;20217;-65
2023/06/13 03:09:11;;;;;;;6.83;3.53;;;15.90;65.40;;;;;;4958436;28;20276;-70
2023/06/13 03:11:37;;;;;;;5.50;2.90;;;15.70;65.50;;;;;;4958669;28;20296;-71
2023/06/13 03:14:02;;;;;;;3.33;2.93;;;15.70;66.20;;;;;;4957734;28;20658;-66
2023/06/13 03:16:28;;;;;;;2.70;2.50;;;15.70;66.50;;;;;;4958374;28;20212;-66
2023/06/13 03:18:54;;;;;;;5.77;3.00;;;15.70;66.40;;;;;;4957041;28;20201;-65
2023/06/13 03:21:20;;;;;;;6.93;3.30;;;15.70;66.30;;;;;;4944545;28;20729;-66
2023/06/13 03:23:46;;;;;;;3.63;2.77;;;15.70;66.70;;;;;;4958288;28;20252;-66
2023/06/13 03:26:12;;;;;;;4.60;4.00;;;15.70;66.90;;;;;;4958326;28;20209;-65
2023/06/13 03:28:37;;;;;;;3.30;3.00;;;15.70;67.10;;;;;;4958653;28;20220;-67
2023/06/13 03:31:02;;;;;;;4.77;2.80;;;15.70;67.20;;;;;;4957925;28;20220;-66
2023/06/13 03:33:28;;;;;;;7.87;4.53;;;15.80;67.50;;;;;;4956931;28;20241;-65
2023/06/13 03:35:53;;;;;;;3.40;3.10;;;15.70;67.40;;;;;;4957921;28;20205;-66
2023/06/13 03:38:20;;;;;;;4.10;3.00;;;15.70;67.90;;;;;;4959983;28;20673;-66
2023/06/13 03:40:45;;;;;;;3.43;3.10;;;15.70;67.90;;;;;;4961726;28;20197;-67
2023/06/13 03:43:11;;;;;;;4.17;3.87;;;15.70;68.30;;;;;;4961864;28;20219;-66
2023/06/13 03:45:36;;;;;;;4.17;3.77;;;15.70;68.40;;;;;;4961459;28;20297;-66
2023/06/13 03:48:02;;;;;;;5.70;3.13;;;15.70;68.70;;;;;;4959874;28;20541;-67
2023/06/13 03:50:27;;;;;;;9.30;4.33;;;15.80;68.90;;;;;;4961734;28;20191;-66
2023/06/13 03:52:53;;;;;;;6.90;3.57;;;15.70;69.00;;;;;;4961349;28;20679;-66
2023/06/13 03:55:19;;;;;;;4.17;3.30;;;15.70;69.50;;;;;;4944490;28;20297;-67
2023/06/13 03:57:45;;;;;;;12.90;4.93;;;15.70;69.50;;;;;;4961594;28;20201;-67
2023/06/13 04:00:11;;;;;;;9.20;4.00;;;15.70;69.70;;;;;;4961859;28;20224;-66
2023/06/13 04:02:37;;;;;;;5.03;3.37;;;15.70;70.10;;;;;;4959325;28;20378;-66
2023/06/13 04:05:03;;;;;;;4.10;3.50;;;15.60;70.30;;;;;;4960968;28;20673;-66
2023/06/13 04:07:33;;;;;;;5.97;3.60;;;15.60;70.70;;;;;;4961625;28;20804;-66
2023/06/13 04:09:59;;;;;;;5.60;3.17;;;15.70;71.20;;;;;;4961425;28;20198;-66
2023/06/13 04:12:25;;;;;;;6.77;3.20;;;15.50;71.90;;;;;;4959418;28;20568;-67
2023/06/13 04:14:50;;;;;;;3.73;3.33;;;15.50;72.60;;;;;;4961129;28;20532;-66
2023/06/13 04:17:16;;;;;;;4.70;3.13;;;15.40;73.20;;;;;;4961347;28;20210;-66
2023/06/13 04:19:41;;;;;;;4.70;3.17;;;15.50;73.70;;;;;;4960067;28;20600;-66
2023/06/13 04:22:07;;;;;;;7.33;3.20;;;15.50;74.20;;;;;;4959368;28;20227;-65
2023/06/13 04:24:32;;;;;;;3.87;3.50;;;15.40;74.60;;;;;;4960288;28;20288;-67
2023/06/13 04:27:00;;;;;;;6.33;3.57;;;15.30;75.50;;;;;;4959654;28;20286;-65
2023/06/13 04:29:25;;;;;;;8.77;3.50;;;15.40;76.70;;;;;;4943326;28;20206;-65
2023/06/13 04:31:51;;;;;;;3.07;2.87;;;15.50;76.50;;;;;;4960763;28;20214;-65
2023/06/13 04:34:18;;;;;;;4.03;3.63;;;15.50;76.30;;;;;;4960794;28;20660;-67
2023/06/13 04:36:44;;;;;;;3.97;3.60;;;15.50;76.10;;;;;;4958746;28;20573;-66
2023/06/13 04:39:09;;;;;;;5.50;3.73;;;15.40;77.20;;;;;;4960513;28;20205;-65
2023/06/13 04:41:37;;;;;;;6.97;3.90;;;15.50;77.70;;;;;;4959919;28;20237;-65
2023/06/13 04:44:10;;;;;;;4.37;3.43;;;15.30;78.90;;;;;;4960355;28;20257;-67
2023/06/13 04:46:38;;;;;;;7.03;4.23;;;15.10;80.70;;;;;;4958358;28;20336;-66
2023/06/13 04:49:08;;;;;;;5.63;3.53;;;15.20;81.40;;;;;;4959664;28;20209;-66
2023/06/13 04:51:34;;;;;;;3.37;3.17;;;15.30;82.00;;;;;;4960577;28;20209;-65
2023/06/13 04:54:00;;;;;;;5.83;3.70;;;15.40;81.60;;;;;;4960155;28;20251;-65
2023/06/13 04:56:27;;;;;;;5.97;3.60;;;15.40;81.50;;;;;;4957314;28;20208;-65
2023/06/13 04:58:53;;;;;;;5.10;3.30;;;15.40;82.10;;;;;;4960277;28;20213;-65
2023/06/13 05:01:27;;;;;;;6.20;3.70;;;15.40;82.00;;;;;;4959869;28;20879;-66
2023/06/13 05:03:55;;;;;;;6.27;3.70;;;15.40;82.20;;;;;;4959186;28;20319;-65
2023/06/13 05:06:21;;;;;;;3.60;3.30;;;15.60;81.40;;;;;;4960161;28;20396;-65
2023/06/13 05:08:47;;;;;;;5.43;3.30;;;15.60;81.40;;;;;;4959733;28;20313;-66
2023/06/13 05:11:12;;;;;;;5.80;3.27;;;15.70;80.80;;;;;;4959996;28;20543;-65
2023/06/13 05:13:38;;;;;;;5.47;4.27;;;15.80;80.70;;;;;;4960051;28;20731;-65
2023/06/13 05:16:04;;;;;;;4.57;4.03;;;15.90;80.30;;;;;;4953877;28;20237;-65
2023/06/13 05:18:29;;;;;;;3.60;3.30;;;16.00;80.40;;;;;;4955264;28;20205;-65
2023/06/13 05:20:59;;;;;;;6.60;3.73;;;16.10;80.60;;;;;;4959338;28;20783;-66
2023/06/13 05:23:25;;;;;;;5.10;3.40;;;16.20;79.70;;;;;;4958888;28;20322;-66
2023/06/13 05:25:51;;;;;;;5.63;3.50;;;16.30;78.10;;;;;;4959627;28;20254;-64
2023/06/13 05:28:16;;;;;;;6.13;3.33;;;16.40;78.10;;;;;;4959913;28;20194;-66
2023/06/13 05:30:42;;;;;;;5.47;4.00;;;16.30;78.50;;;;;;4957618;28;20210;-65
2023/06/13 05:33:08;;;;;;;9.30;4.10;;;16.50;78.30;;;;;;4959445;28;20980;-65
2023/06/13 05:35:34;;;;;;;5.80;3.50;;;16.50;78.20;;;;;;4959299;28;21086;-66
2023/06/13 05:38:00;;;;;;;6.40;3.97;;;16.50;77.80;;;;;;4959439;28;20193;-65
2023/06/13 05:40:25;;;;;;;15.50;4.53;;;16.60;78.00;;;;;;4959322;28;20198;-64
2023/06/13 05:42:51;;;;;;;4.77;3.10;;;16.60;77.40;;;;;;4956710;28;20335;-65
2023/06/13 05:45:16;;;;;;;4.23;3.57;;;16.70;76.40;;;;;;4959479;28;20202;-65
2023/06/13 05:47:42;;;;;;;19.27;14.10;;;16.70;74.70;;;;;;4959443;28;20281;-64
2023/06/13 05:50:07;;;;;;;6.30;3.93;;;16.80;75.30;;;;;;4959282;28;20685;-64
2023/06/13 05:52:33;;;;;;;5.53;4.00;;;17.00;74.60;;;;;;4958451;28;20293;-64
2023/06/13 05:55:01;;;;;;;4.20;3.27;;;16.90;74.70;;;;;;4958970;28;20234;-65
2023/06/13 05:57:41;;;;;;;6.00;4.00;;;17.00;75.00;;;;;;4959289;28;20276;-65
2023/06/13 06:00:09;;;;;;;9.37;4.10;;;17.10;74.70;;;;;;4959212;28;20203;-66
2023/06/13 06:02:35;;;;;;;5.90;4.00;;;17.10;73.40;;;;;;4959209;28;20219;-66
2023/06/13 06:05:00;;;;;;;10.50;3.93;;;17.20;73.40;;;;;;4959129;28;20292;-66
2023/06/13 06:07:26;;;;;;;6.57;3.50;;;17.30;72.30;;;;;;4959100;28;20293;-65
2023/06/13 06:09:52;;;;;;;5.77;4.13;;;17.40;71.10;;;;;;4958795;28;20197;-64
2023/06/13 06:12:17;;;;;;;5.13;3.80;;;17.40;70.60;;;;;;4950284;28;20211;-65
2023/06/13 06:14:43;;;;;;;6.73;4.30;;;17.30;70.00;;;;;;4947814;28;20199;-66
2023/06/13 06:17:08;;;;;;;7.10;3.70;;;17.40;70.60;;;;;;4949637;28;20206;-65
2023/06/13 06:19:34;;;;;;;4.97;4.27;;;17.50;71.10;;;;;;4949625;28;20265;-66
2023/06/13 06:21:59;;;;;;;8.67;4.67;;;17.70;70.30;;;;;;4949234;28;20309;-65
2023/06/13 06:24:25;;;;;;;7.60;3.73;;;17.60;70.30;;;;;;4949613;28;21069;-65
2023/06/13 06:26:51;;;;;;;4.90;3.50;;;17.60;71.10;;;;;;4946827;28;20637;-65
2023/06/13 06:29:16;;;;;;;4.57;3.80;;;17.70;70.50;;;;;;4949797;28;20195;-65
2023/06/13 06:31:42;;;;;;;8.67;4.10;;;17.70;70.50;;;;;;4948154;28;20196;-67
2023/06/13 06:34:07;;;;;;;6.60;3.90;;;17.70;70.60;;;;;;4948489;28;20262;-65
2023/06/13 06:36:33;;;;;;;4.43;3.70;;;17.80;70.40;;;;;;4948492;28;20215;-65
2023/06/13 06:38:59;;;;;;;6.73;3.80;;;18.00;70.40;;;;;;4952137;28;20291;-65
2023/06/13 06:41:24;;;;;;;9.63;3.97;;;18.00;70.50;;;;;;4945831;28;20299;-66
2023/06/13 06:43:50;;;;;;;11.87;4.30;;;18.00;70.30;;;;;;4948411;28;20196;-67
2023/06/13 06:46:15;;;;;;;6.40;3.77;;;18.10;70.40;;;;;;4948417;28;20311;-66
2023/06/13 06:48:41;;;;;;;9.83;4.27;;;18.20;70.50;;;;;;4949213;28;20671;-66
2023/06/13 06:51:06;;;;;;;6.77;3.97;;;18.20;70.40;;;;;;4945036;28;20202;-65
2023/06/13 06:53:32;;;;;;;7.23;4.27;;;18.30;70.10;;;;;;4944287;28;20201;-66
2023/06/13 06:55:57;;;;;;;8.60;4.63;;;18.40;69.60;;;;;;4943751;28;20210;-70
2023/06/13 06:58:24;;;;;;;8.13;4.53;;;18.40;70.30;;;;;;4948472;28;20214;-74
2023/06/13 07:00:49;;;;;;;7.63;4.70;;;18.40;69.90;;;;;;4930974;29;20207;-73
2023/06/13 07:03:15;;;;;;;6.37;3.70;;;18.60;69.60;;;;;;4930616;29;20208;-73
2023/06/13 07:05:41;;;;;;;5.97;3.87;;;18.60;70.30;;;;;;4946166;28;20203;-73
2023/06/13 07:08:06;;;;;;;4.20;3.80;;;18.70;68.20;;;;;;4948634;28;20233;-73
2023/06/13 07:10:32;;;;;;;4.40;3.17;;;18.80;66.40;;;;;;4925732;28;20253;-74
2023/06/13 07:12:58;;;;;;;3.70;3.40;;;18.70;66.40;;;;;;4943738;28;20563;-73
2023/06/13 07:15:23;;;;;;;8.47;4.40;;;18.70;66.30;;;;;;4926775;28;20197;-71
2023/06/13 07:17:52;;;;;;;5.87;4.93;;;19.00;65.80;;;;;;4947513;28;20291;-74
2023/06/13 07:20:17;;;;;;;9.63;4.27;;;19.00;64.70;;;;;;4950079;28;20210;-72
2023/06/13 07:22:43;;;;;;;4.03;3.63;;;19.10;62.40;;;;;;4949753;28;20209;-74
2023/06/13 07:25:08;;;;;;;7.27;3.40;;;19.20;61.10;;;;;;4945633;28;20228;-74
2023/06/13 07:27:34;;;;;;;6.67;3.60;;;19.30;57.70;;;;;;4944772;28;20231;-74
2023/06/13 07:30:00;;;;;;;6.60;3.63;;;19.30;57.50;;;;;;4944732;28;20247;-73
2023/06/13 07:32:26;;;;;;;4.97;4.20;;;19.30;58.10;;;;;;4946434;28;20202;-72
2023/06/13 07:34:51;;;;;;;5.07;4.03;;;19.30;57.90;;;;;;4944112;28;20212;-72
2023/06/13 07:37:17;;;;;;;5.83;3.57;;;19.30;58.70;;;;;;4944191;28;20262;-73
2023/06/13 07:39:42;;;;;;;4.90;3.50;;;19.30;59.40;;;;;;4945453;28;20290;-72
2023/06/13 07:42:08;;;;;;;5.17;3.73;;;19.30;60.40;;;;;;4945206;28;20212;-72
2023/06/13 07:44:34;;;;;;;3.97;3.30;;;19.30;61.40;;;;;;4945508;28;20722;-73
2023/06/13 07:46:59;;;;;;;6.63;3.60;;;19.40;60.90;;;;;;4945239;28;20200;-73
2023/06/13 07:49:24;;;;;;;4.10;3.20;;;19.50;59.40;;;;;;4951476;28;20512;-77
2023/06/13 07:51:50;;;;;;;7.57;3.97;;;19.60;60.30;;;;;;4945225;28;20761;-73
2023/06/13 07:54:16;;;;;;;7.23;4.17;;;19.70;60.80;;;;;;4951496;28;20212;-74
2023/06/13 07:56:42;;;;;;;8.00;3.60;;;20.00;60.30;;;;;;4954131;28;20252;-73
2023/06/13 07:59:08;;;;;;;4.97;3.80;;;20.00;60.10;;;;;;4954741;28;20213;-74
2023/06/13 08:01:33;;;;;;;6.23;3.97;;;20.10;59.40;;;;;;4951056;28;20223;-74
2023/06/13 08:03:59;;;;;;;6.50;3.27;;;20.10;60.60;;;;;;4953312;28;20628;-74
2023/06/13 08:06:24;;;;;;;5.07;3.03;;;20.10;61.60;;;;;;4956252;28;20185;-75
2023/06/13 08:08:50;;;;;;;9.50;4.20;;;20.10;60.60;;;;;;4964649;28;20198;-77
2023/06/13 08:11:15;;;;;;;7.87;4.60;;;20.20;67.30;;;;;;4963508;28;20216;-74
2023/06/13 08:13:41;;;;;;;4.93;3.23;;;20.00;82.80;;;;;;4962602;28;20240;-77
2023/06/13 08:16:06;;;;;;;4.50;4.20;;;19.70;72.70;;;;;;4961986;28;20200;-71
2023/06/13 08:18:32;;;;;;;6.87;3.97;;;19.50;78.00;;;;;;4960941;28;20209;-73
2023/06/13 08:20:57;;;;;;;4.97;3.53;;;19.30;69.00;;;;;;4929870;28;20220;-72
2023/06/13 08:23:23;;;;;;;6.40;3.90;;;19.30;74.40;;;;;;4946386;28;20221;-74
2023/06/13 08:25:48;;;;;;;3.83;3.40;;;19.30;72.10;;;;;;4951365;28;20558;-70
2023/06/13 08:28:14;;;;;;;3.90;3.40;;;19.40;66.00;;;;;;4947787;28;20710;-70
2023/06/13 08:30:42;;;;;;;3.93;3.10;;;19.50;68.30;;;;;;4959925;28;20223;-70
2023/06/13 08:33:08;;;;;;;3.77;3.07;;;19.70;63.60;;;;;;4947868;28;20642;-71
2023/06/13 08:35:33;;;;;;;4.57;3.10;;;19.80;64.10;;;;;;4953900;28;20215;-71
2023/06/13 08:37:59;;;;;;;7.30;3.57;;;19.80;62.40;;;;;;4961035;28;20197;-70
2023/06/13 08:40:25;;;;;;;5.03;3.47;;;19.80;60.40;;;;;;4960789;28;20201;-70
2023/06/13 08:42:51;;;;;;;9.97;3.47;;;19.90;62.40;;;;;;4960701;28;20260;-72
2023/06/13 08:45:17;;;;;;;4.23;3.00;;;20.00;64.70;;;;;;4960648;28;20207;-73
2023/06/13 08:47:46;;;;;;;7.13;4.23;;;20.20;63.20;;;;;;4959344;28;20205;-74
2023/06/13 08:50:18;;;;;;;3.63;3.10;;;20.50;60.00;;;;;;4960591;28;20192;-73
2023/06/13 08:52:46;;;;;;;4.27;3.17;;;20.60;60.40;;;;;;4960584;28;20208;-74
2023/06/13 08:55:14;;;;;;;7.70;3.63;;;20.60;61.90;;;;;;4948754;28;20205;-71
2023/06/13 08:57:41;;;;;;;4.60;3.37;;;20.60;58.20;;;;;;4942860;28;20220;-74
2023/06/13 09:00:12;;;;;;;3.40;3.10;;;20.60;60.20;;;;;;4947198;28;20623;-77
2023/06/13 09:02:43;;;;;;;7.93;3.63;;;20.60;59.50;;;;;;4944917;28;20219;-72
2023/06/13 09:05:15;;;;;;;3.30;3.00;;;20.60;60.50;;;;;;4947825;28;20202;-73
2023/06/13 09:07:42;;;;;;;4.60;2.77;;;20.80;59.50;;;;;;4938455;28;20221;-73
2023/06/13 09:10:12;;;;;;;6.23;3.70;;;20.90;59.50;;;;;;4951631;28;20190;-72
2023/06/13 09:12:43;;;;;;;7.97;3.57;;;20.90;58.60;;;;;;4924713;28;20211;-72
2023/06/13 09:15:09;;;;;;;3.80;3.13;;;21.00;61.20;;;;;;4948014;28;20263;-72
2023/06/13 09:17:35;;;;;;;8.50;4.27;;;21.00;59.10;;;;;;4941902;28;20201;-71
2023/06/13 09:20:01;;;;;;;5.83;3.43;;;21.20;59.40;;;;;;4937625;28;20205;-71
2023/06/13 09:22:26;;;;;;;10.73;3.73;;;21.20;61.40;;;;;;4939263;28;20655;-73
2023/06/13 09:24:52;;;;;;;3.60;3.00;;;21.40;59.80;;;;;;4940834;28;20717;-75
2023/06/13 09:27:18;;;;;;;7.53;2.70;;;21.60;58.80;;;;;;4940943;28;20937;-75
2023/06/13 09:29:47;;;;;;;3.50;2.77;;;21.70;58.90;;;;;;4927572;28;20287;-71
2023/06/13 09:32:14;;;;;;;4.53;3.47;;;21.70;57.70;;;;;;4940013;28;20237;-70
2023/06/13 09:34:41;;;;;;;5.73;2.83;;;21.80;58.40;;;;;;4939981;28;20696;-74
2023/06/13 09:37:08;;;;;;;4.10;2.80;;;22.10;56.40;;;;;;4940166;28;20794;-73
2023/06/13 09:39:33;;;;;;;3.20;2.80;;;22.00;56.30;;;;;;4944990;28;20198;-73
2023/06/13 09:42:01;;;;;;;7.47;3.17;;;22.00;56.40;;;;;;4946018;28;20213;-71
2023/06/13 09:44:30;;;;;;;4.67;2.50;;;22.20;55.00;;;;;;4944441;28;20198;-70
2023/06/13 09:46:56;;;;;;;5.20;4.70;;;22.40;52.10;;;;;;4949543;28;20225;-71
2023/06/13 09:49:21;;;;;;;6.17;4.03;;;22.50;53.00;;;;;;4939655;28;20710;-70
2023/06/13 09:51:47;;;;;;;3.93;2.83;;;22.60;52.20;;;;;;4943837;28;20622;-71
2023/06/13 09:54:14;;;;;;;3.67;2.90;;;22.60;50.60;;;;;;4944682;28;20214;-70
2023/06/13 09:56:41;;;;;;;6.20;2.67;;;22.70;51.40;;;;;;4944852;28;20206;-71
2023/06/13 09:59:07;;;;;;;3.03;2.70;;;22.70;47.80;;;;;;4952165;28;20680;-70
2023/06/13 10:01:34;;;;;;;2.90;2.67;;;22.80;49.00;;;;;;4924180;28;20265;-71
2023/06/13 10:04:05;;;;;;;4.53;2.43;;;22.70;50.40;;;;;;4947193;28;20233;-71
2023/06/13 10:06:31;;;;;;;4.90;2.47;;;22.80;49.10;;;;;;4948640;28;21628;-74
2023/06/13 10:08:56;;;;;;;3.37;2.67;;;22.80;48.60;;;;;;4949927;28;20284;-73
2023/06/13 10:11:27;;;;;;;2.33;2.20;;;22.90;49.30;;;;;;4955769;28;20689;-72
2023/06/13 10:14:07;;;;;;;3.33;2.70;;;23.00;48.70;;;;;;4949308;28;20210;-71
2023/06/13 10:16:40;;;;;;;3.37;2.47;;;23.20;48.10;;;;;;4946994;28;20210;-72
2023/06/13 10:19:08;;;;;;;2.65;2.45;;;23.20;48.20;;;;;;4943577;28;20292;-72
2023/06/13 10:21:36;;;;;;;3.30;3.00;;;23.20;47.60;;;;;;4948152;28;20668;-71
2023/06/13 10:24:02;;;;;;;3.67;3.00;;;23.30;49.30;;;;;;4950191;28;20241;-71
2023/06/13 10:26:41;;;;;;;6.43;3.00;;;23.40;48.80;;;;;;4951569;28;20204;-71
2023/06/13 10:29:25;;;;;;;3.57;3.33;;;23.40;48.80;;;;;;4944441;28;20214;-74
2023/06/13 10:32:10;;;;;;;4.37;3.40;;;23.40;49.50;;;;;;4927068;28;20197;-72
2023/06/13 10:35:12;;;;;;;3.47;2.75;;;23.40;50.40;;;;;;4954485;28;20297;-74
2023/06/13 10:38:15;;;;;;;5.00;3.10;;;23.60;51.30;;;;;;4946574;28;20259;-73
2023/06/13 10:40:46;;;;;;;7.35;3.42;;;23.80;50.90;;;;;;4939746;28;20616;-74
2023/06/13 10:43:37;;;;;;;7.18;3.63;;;24.00;48.90;;;;;;4947134;28;20763;-74
2023/06/13 10:46:05;;;;;;;3.08;2.78;;;24.00;50.20;;;;;;4949233;28;20265;-74
2023/06/13 10:48:38;;;;;;;4.22;3.03;;;24.10;50.40;;;;;;4945911;28;20206;-74
2023/06/13 10:51:09;;;;;;;3.97;2.90;;;24.20;50.80;;;;;;4946578;28;20637;-73
2023/06/13 10:53:37;;;;;;;11.83;3.40;;;24.00;49.20;;;;;;4946497;28;20631;-73
2023/06/13 10:56:06;;;;;;;3.78;3.10;;;24.10;48.90;;;;;;4935098;28;20700;-72
2023/06/13 10:58:34;;;;;;;4.22;3.72;;;24.10;50.20;;;;;;4939916;28;20288;-71
2023/06/13 11:01:26;;;;;;;14.85;3.50;;;23.90;49.30;;;;;;4925261;29;20198;-71
2023/06/13 11:03:51;;;;;;;6.07;3.13;;;23.80;48.40;;;;;;4942686;28;20253;-73
2023/06/13 11:06:17;;;;;;;6.43;3.13;;;23.80;48.90;;;;;;4955289;28;20402;-74
2023/06/13 11:08:43;;;;;;;3.58;3.05;;;23.80;50.30;;;;;;4946840;28;20202;-74
2023/06/13 11:11:09;;;;;;;5.53;2.95;;;23.90;49.70;;;;;;4944507;28;20201;-73
2023/06/13 11:13:36;;;;;;;10.20;3.08;;;24.00;48.50;;;;;;4950935;28;20197;-71
2023/06/13 11:16:37;;;;;;;3.75;2.88;;;23.80;47.00;;;;;;4948997;28;20206;-71
2023/06/13 11:19:11;;;;;;;7.20;3.13;;;23.80;49.30;;;;;;4943328;28;20202;-71
2023/06/13 11:21:44;;;;;;;5.53;3.00;;;23.60;47.10;;;;;;4928658;28;20244;-71
2023/06/13 11:24:14;;;;;;;10.02;3.33;;;23.50;49.50;;;;;;4945068;28;20225;-73
2023/06/13 11:26:44;;;;;;;7.57;2.97;;;23.60;49.10;;;;;;4941248;28;20619;-71
2023/06/13 11:29:10;;;;;;;3.05;2.60;;;23.50;48.90;;;;;;4935533;28;20676;-72
2023/06/13 11:31:37;;;;;;;5.18;2.50;;;23.50;48.40;;;;;;4951849;28;20635;-72
2023/06/13 11:34:05;;;;;;;8.88;3.00;;;23.70;49.00;;;;;;4944516;28;20292;-71
2023/06/13 11:36:33;;;;;;;3.90;2.15;;;24.00;47.70;;;;;;4950647;28;20197;-71
2023/06/13 11:39:04;;;;;;;4.73;2.30;;;24.10;47.40;;;;;;4949248;28;20285;-72
2023/06/13 11:41:31;;;;;;;3.00;2.20;;;24.00;44.50;;;;;;4944068;28;20241;-73
2023/06/13 11:43:57;;;;;;;7.72;6.97;;;24.10;45.50;;;;;;4943587;28;20217;-75
2023/06/13 11:46:23;;;;;;;6.28;2.78;;;24.10;48.50;;;;;;4952995;28;20203;-78
2023/06/13 11:48:55;;;;;;;5.40;3.13;;;24.40;47.50;;;;;;4957391;28;20225;-77
2023/06/13 11:51:21;;;;;;;4.70;2.60;;;24.40;47.10;;;;;;4944160;28;20206;-74
2023/06/13 11:53:49;;;;;;;3.58;2.75;;;24.70;45.90;;;;;;4950538;28;20220;-76
2023/06/13 11:56:20;;;;;;;4.95;2.47;;;25.00;46.20;;;;;;4948789;28;20693;-74
2023/06/13 11:58:46;;;;;;;4.07;3.38;;;25.20;47.70;;;;;;4945228;28;20599;-74
2023/06/13 12:01:16;;;;;;;3.13;2.60;;;25.20;45.90;;;;;;4949385;28;20688;-76
2023/06/13 12:03:45;;;;;;;4.40;2.53;;;25.20;45.00;;;;;;4954413;28;20295;-74
2023/06/13 12:06:11;;;;;;;4.82;2.88;;;25.20;47.00;;;;;;4950285;28;20203;-76
2023/06/13 12:08:41;;;;;;;7.05;2.85;;;25.30;46.90;;;;;;4950640;28;20205;-83
2023/06/13 12:11:09;;;;;;;5.65;1.75;;;25.50;41.00;;;;;;4938850;28;20597;-77
2023/06/13 12:13:34;;;;;;;5.70;2.38;;;25.70;38.60;;;;;;4953659;28;20558;-80
2023/06/13 12:16:00;;;;;;;2.22;2.03;;;25.90;41.10;;;;;;4945136;28;20276;-74
2023/06/13 12:18:29;;;;;;;3.13;2.70;;;25.80;42.50;;;;;;4943346;28;20234;-79
2023/06/13 12:20:57;;;;;;;5.75;2.75;;;25.80;42.20;;;;;;4944038;28;20205;-74
2023/06/13 12:23:24;;;;;;;2.65;2.03;;;26.00;43.00;;;;;;4941615;28;20294;-74
2023/06/13 12:25:50;;;;;;;2.45;2.13;;;26.20;42.60;;;;;;4944646;28;20201;-75
2023/06/13 12:28:18;;;;;;;5.72;2.53;;;26.20;43.20;;;;;;4944459;28;20193;-76
2023/06/13 12:30:45;;;;;;;2.30;2.10;;;26.20;42.90;;;;;;4946926;28;20298;-77
2023/06/13 12:33:16;;;;;;;2.72;2.47;;;26.40;43.00;;;;;;4934659;28;20689;-76
2023/06/13 12:35:53;;;;;;;5.65;2.58;;;26.40;43.00;;;;;;4949491;28;20224;-77
2023/06/13 12:38:29;;;;;;;2.22;2.03;;;26.60;42.60;;;;;;4944423;28;20233;-78
2023/06/13 12:40:56;;;;;;;3.60;2.90;;;25.90;42.80;;;;;;4950273;28;20212;-76
2023/06/13 12:43:26;;;;;;;3.50;2.33;;;26.10;43.70;;;;;;4958538;28;20232;-77
2023/06/13 12:45:54;;;;;;;3.42;3.13;;;26.20;42.90;;;;;;4953794;28;20198;-77
2023/06/13 12:48:21;;;;;;;3.88;2.80;;;25.80;43.50;;;;;;4960135;28;20259;-77